sensor_id;sensor_type;location;lat;lon;timestamp;P1;durP1;ratioP1;P2;durP2;ratioP2
23658;SDS011;12006;42.666;23.326;2023-01-01T00:01:27;171.13;;;111.80;;
23658;SDS011;12006;42.666;23.326;2023-01-01T00:03:54;190.47;;;124.20;;
23658;SDS011;12006;42.666;23.326;2023-01-01T00:06:20;185.37;;;122.33;;
23658;SDS011;12006;42.666;23.326;2023-01-01T00:08:45;202.13;;;130.17;;
23658;SDS011;12006;42.666;23.326;2023-01-01T00:11:11;197.30;;;124.77;;
23658;SDS011;12006;42.666;23.326;2023-01-01T00:13:38;201.03;;;126.97;;
23658;SDS011;12006;42.666;23.326;2023-01-01T00:16:04;188.13;;;123.63;;
23658;SDS011;12006;42.666;23.326;2023-01-01T00:18:29;182.20;;;119.13;;
23658;SDS011;12006;42.666;23.326;2023-01-01T00:21:09;188.60;;;120.07;;
23658;SDS011;12006;42.666;23.326;2023-01-01T00:23:35;188.70;;;121.47;;
23658;SDS011;12006;42.666;23.326;2023-01-01T00:26:01;179.00;;;118.27;;
23658;SDS011;12006;42.666;23.326;2023-01-01T00:28:32;178.43;;;119.67;;
23658;SDS011;12006;42.666;23.326;2023-01-01T00:30:58;178.53;;;114.73;;
23658;SDS011;12006;42.666;23.326;2023-01-01T00:33:23;181.50;;;117.67;;
23658;SDS011;12006;42.666;23.326;2023-01-01T00:35:48;192.70;;;119.73;;
23658;SDS011;12006;42.666;23.326;2023-01-01T00:38:13;181.03;;;118.83;;
23658;SDS011;12006;42.666;23.326;2023-01-01T00:40:39;188.37;;;120.57;;
23658;SDS011;12006;42.666;23.326;2023-01-01T00:43:04;181.43;;;124.17;;
23658;SDS011;12006;42.666;23.326;2023-01-01T00:45:29;191.67;;;124.40;;
23658;SDS011;12006;42.666;23.326;2023-01-01T00:47:54;194.60;;;122.80;;
23658;SDS011;12006;42.666;23.326;2023-01-01T00:50:20;204.50;;;128.70;;
23658;SDS011;12006;42.666;23.326;2023-01-01T00:52:46;191.37;;;125.63;;
23658;SDS011;12006;42.666;23.326;2023-01-01T00:55:12;192.90;;;126.33;;
23658;SDS011;12006;42.666;23.326;2023-01-01T00:57:38;198.63;;;130.47;;
23658;SDS011;12006;42.666;23.326;2023-01-01T01:00:03;209.03;;;131.07;;
23658;SDS011;12006;42.666;23.326;2023-01-01T01:02:29;188.60;;;126.57;;
23658;SDS011;12006;42.666;23.326;2023-01-01T01:04:54;204.13;;;134.07;;
23658;SDS011;12006;42.666;23.326;2023-01-01T01:07:19;206.83;;;135.80;;
23658;SDS011;12006;42.666;23.326;2023-01-01T01:09:45;218.10;;;140.43;;
23658;SDS011;12006;42.666;23.326;2023-01-01T01:12:10;215.37;;;142.57;;
23658;SDS011;12006;42.666;23.326;2023-01-01T01:14:35;225.70;;;138.33;;
23658;SDS011;12006;42.666;23.326;2023-01-01T01:17:00;219.37;;;138.17;;
23658;SDS011;12006;42.666;23.326;2023-01-01T01:19:26;214.47;;;141.33;;
23658;SDS011;12006;42.666;23.326;2023-01-01T01:21:51;228.93;;;148.17;;
23658;SDS011;12006;42.666;23.326;2023-01-01T01:24:16;222.17;;;142.27;;
23658;SDS011;12006;42.666;23.326;2023-01-01T01:26:42;214.50;;;140.77;;
23658;SDS011;12006;42.666;23.326;2023-01-01T01:29:07;218.23;;;142.00;;
23658;SDS011;12006;42.666;23.326;2023-01-01T01:31:33;222.07;;;138.30;;
23658;SDS011;12006;42.666;23.326;2023-01-01T01:33:58;222.77;;;143.83;;
23658;SDS011;12006;42.666;23.326;2023-01-01T01:36:24;226.17;;;147.07;;
23658;SDS011;12006;42.666;23.326;2023-01-01T01:38:49;219.87;;;144.67;;
23658;SDS011;12006;42.666;23.326;2023-01-01T01:41:16;217.70;;;137.77;;
23658;SDS011;12006;42.666;23.326;2023-01-01T01:46:11;220.50;;;138.50;;
23658;SDS011;12006;42.666;23.326;2023-01-01T01:48:41;235.40;;;146.47;;
23658;SDS011;12006;42.666;23.326;2023-01-01T01:51:07;219.90;;;139.90;;
23658;SDS011;12006;42.666;23.326;2023-01-01T01:53:34;235.50;;;148.60;;
23658;SDS011;12006;42.666;23.326;2023-01-01T01:56:03;224.60;;;143.83;;
23658;SDS011;12006;42.666;23.326;2023-01-01T01:58:30;233.30;;;146.80;;
23658;SDS011;12006;42.666;23.326;2023-01-01T02:00:56;224.80;;;147.67;;
23658;SDS011;12006;42.666;23.326;2023-01-01T02:03:22;225.43;;;145.17;;
23658;SDS011;12006;42.666;23.326;2023-01-01T02:05:49;221.90;;;142.93;;
23658;SDS011;12006;42.666;23.326;2023-01-01T02:08:15;219.43;;;143.03;;
23658;SDS011;12006;42.666;23.326;2023-01-01T02:10:40;249.73;;;154.77;;
23658;SDS011;12006;42.666;23.326;2023-01-01T02:13:06;235.77;;;149.00;;
23658;SDS011;12006;42.666;23.326;2023-01-01T02:15:38;230.33;;;149.87;;
23658;SDS011;12006;42.666;23.326;2023-01-01T02:18:06;231.63;;;151.47;;
23658;SDS011;12006;42.666;23.326;2023-01-01T02:26:00;237.07;;;150.20;;
23658;SDS011;12006;42.666;23.326;2023-01-01T02:30:57;228.90;;;144.67;;
23658;SDS011;12006;42.666;23.326;2023-01-01T02:33:25;232.17;;;147.67;;
23658;SDS011;12006;42.666;23.326;2023-01-01T02:35:51;228.97;;;143.83;;
23658;SDS011;12006;42.666;23.326;2023-01-01T02:38:27;223.17;;;146.23;;
23658;SDS011;12006;42.666;23.326;2023-01-01T02:40:57;231.67;;;147.23;;
23658;SDS011;12006;42.666;23.326;2023-01-01T02:43:24;228.03;;;148.10;;
23658;SDS011;12006;42.666;23.326;2023-01-01T02:45:49;232.50;;;148.30;;
23658;SDS011;12006;42.666;23.326;2023-01-01T02:50:59;239.40;;;150.93;;
23658;SDS011;12006;42.666;23.326;2023-01-01T02:53:36;242.87;;;154.83;;
23658;SDS011;12006;42.666;23.326;2023-01-01T03:01:19;249.37;;;158.40;;
23658;SDS011;12006;42.666;23.326;2023-01-01T03:03:52;246.23;;;156.20;;
23658;SDS011;12006;42.666;23.326;2023-01-01T03:11:58;224.23;;;146.10;;
23658;SDS011;12006;42.666;23.326;2023-01-01T03:14:41;223.10;;;142.57;;
23658;SDS011;12006;42.666;23.326;2023-01-01T03:17:31;238.63;;;141.67;;
23658;SDS011;12006;42.666;23.326;2023-01-01T03:19:54;235.23;;;147.33;;
23658;SDS011;12006;42.666;23.326;2023-01-01T03:22:23;259.53;;;163.20;;
23658;SDS011;12006;42.666;23.326;2023-01-01T03:24:59;262.20;;;166.60;;
23658;SDS011;12006;42.666;23.326;2023-01-01T03:27:31;248.70;;;159.87;;
23658;SDS011;12006;42.666;23.326;2023-01-01T03:29:59;267.87;;;167.07;;
23658;SDS011;12006;42.666;23.326;2023-01-01T03:32:33;249.97;;;162.70;;
23658;SDS011;12006;42.666;23.326;2023-01-01T03:40:53;262.67;;;159.50;;
23658;SDS011;12006;42.666;23.326;2023-01-01T03:44:05;239.27;;;152.90;;
23658;SDS011;12006;42.666;23.326;2023-01-01T03:46:10;242.73;;;151.80;;
23658;SDS011;12006;42.666;23.326;2023-01-01T03:48:36;242.83;;;152.13;;
23658;SDS011;12006;42.666;23.326;2023-01-01T03:51:30;220.43;;;139.60;;
23658;SDS011;12006;42.666;23.326;2023-01-01T03:53:57;218.87;;;139.63;;
23658;SDS011;12006;42.666;23.326;2023-01-01T03:58:54;229.37;;;147.87;;
23658;SDS011;12006;42.666;23.326;2023-01-01T04:03:48;238.10;;;150.67;;
23658;SDS011;12006;42.666;23.326;2023-01-01T04:06:14;227.57;;;145.40;;
23658;SDS011;12006;42.666;23.326;2023-01-01T04:08:40;233.90;;;146.77;;
23658;SDS011;12006;42.666;23.326;2023-01-01T04:11:07;227.67;;;146.40;;
23658;SDS011;12006;42.666;23.326;2023-01-01T04:13:54;226.20;;;142.17;;
23658;SDS011;12006;42.666;23.326;2023-01-01T04:16:19;224.00;;;139.70;;
23658;SDS011;12006;42.666;23.326;2023-01-01T04:18:45;229.00;;;142.43;;
23658;SDS011;12006;42.666;23.326;2023-01-01T04:21:10;221.30;;;140.13;;
23658;SDS011;12006;42.666;23.326;2023-01-01T04:23:36;242.83;;;147.07;;
23658;SDS011;12006;42.666;23.326;2023-01-01T04:26:01;234.17;;;143.00;;
23658;SDS011;12006;42.666;23.326;2023-01-01T04:28:26;229.03;;;141.80;;
23658;SDS011;12006;42.666;23.326;2023-01-01T04:30:51;236.83;;;143.50;;
23658;SDS011;12006;42.666;23.326;2023-01-01T04:33:17;239.23;;;148.90;;
23658;SDS011;12006;42.666;23.326;2023-01-01T04:35:42;224.23;;;142.60;;
23658;SDS011;12006;42.666;23.326;2023-01-01T04:38:11;231.43;;;143.40;;
23658;SDS011;12006;42.666;23.326;2023-01-01T04:40:36;215.33;;;135.93;;
23658;SDS011;12006;42.666;23.326;2023-01-01T04:43:01;219.10;;;136.47;;
23658;SDS011;12006;42.666;23.326;2023-01-01T04:45:27;215.53;;;138.17;;
23658;SDS011;12006;42.666;23.326;2023-01-01T04:47:52;227.77;;;141.30;;
23658;SDS011;12006;42.666;23.326;2023-01-01T04:50:17;213.93;;;139.00;;
23658;SDS011;12006;42.666;23.326;2023-01-01T04:52:43;216.33;;;139.80;;
23658;SDS011;12006;42.666;23.326;2023-01-01T04:55:08;232.67;;;141.87;;
23658;SDS011;12006;42.666;23.326;2023-01-01T04:57:33;227.67;;;139.67;;
23658;SDS011;12006;42.666;23.326;2023-01-01T04:59:59;235.57;;;145.43;;
23658;SDS011;12006;42.666;23.326;2023-01-01T05:02:24;218.93;;;138.07;;
23658;SDS011;12006;42.666;23.326;2023-01-01T05:04:49;223.03;;;140.30;;
23658;SDS011;12006;42.666;23.326;2023-01-01T05:07:15;224.93;;;141.30;;
23658;SDS011;12006;42.666;23.326;2023-01-01T05:09:40;211.60;;;132.00;;
23658;SDS011;12006;42.666;23.326;2023-01-01T05:12:05;214.57;;;132.93;;
23658;SDS011;12006;42.666;23.326;2023-01-01T05:14:31;206.67;;;130.13;;
23658;SDS011;12006;42.666;23.326;2023-01-01T05:16:56;224.60;;;139.30;;
23658;SDS011;12006;42.666;23.326;2023-01-01T05:19:21;213.10;;;132.83;;
23658;SDS011;12006;42.666;23.326;2023-01-01T05:21:46;214.33;;;134.60;;
23658;SDS011;12006;42.666;23.326;2023-01-01T05:24:12;204.37;;;132.37;;
23658;SDS011;12006;42.666;23.326;2023-01-01T05:26:38;207.73;;;134.50;;
23658;SDS011;12006;42.666;23.326;2023-01-01T05:29:04;228.00;;;141.97;;
23658;SDS011;12006;42.666;23.326;2023-01-01T05:31:31;229.37;;;143.33;;
23658;SDS011;12006;42.666;23.326;2023-01-01T05:33:57;228.37;;;140.57;;
23658;SDS011;12006;42.666;23.326;2023-01-01T05:36:26;225.70;;;142.63;;
23658;SDS011;12006;42.666;23.326;2023-01-01T05:38:52;223.90;;;144.50;;
23658;SDS011;12006;42.666;23.326;2023-01-01T05:41:18;221.77;;;138.37;;
23658;SDS011;12006;42.666;23.326;2023-01-01T05:43:44;218.47;;;140.20;;
23658;SDS011;12006;42.666;23.326;2023-01-01T05:46:13;234.33;;;146.33;;
23658;SDS011;12006;42.666;23.326;2023-01-01T05:48:38;234.33;;;147.17;;
23658;SDS011;12006;42.666;23.326;2023-01-01T05:51:08;225.07;;;142.90;;
23658;SDS011;12006;42.666;23.326;2023-01-01T05:53:34;222.17;;;138.93;;
23658;SDS011;12006;42.666;23.326;2023-01-01T05:55:59;237.33;;;147.33;;
23658;SDS011;12006;42.666;23.326;2023-01-01T05:58:25;207.87;;;130.50;;
23658;SDS011;12006;42.666;23.326;2023-01-01T06:00:50;197.87;;;121.90;;
23658;SDS011;12006;42.666;23.326;2023-01-01T06:03:16;206.53;;;128.20;;
23658;SDS011;12006;42.666;23.326;2023-01-01T06:05:41;200.60;;;123.67;;
23658;SDS011;12006;42.666;23.326;2023-01-01T06:08:06;200.03;;;126.20;;
23658;SDS011;12006;42.666;23.326;2023-01-01T06:10:31;196.63;;;123.37;;
23658;SDS011;12006;42.666;23.326;2023-01-01T06:12:57;203.60;;;122.73;;
23658;SDS011;12006;42.666;23.326;2023-01-01T06:15:23;177.27;;;117.40;;
23658;SDS011;12006;42.666;23.326;2023-01-01T06:17:48;183.47;;;117.33;;
23658;SDS011;12006;42.666;23.326;2023-01-01T06:20:14;188.03;;;115.37;;
23658;SDS011;12006;42.666;23.326;2023-01-01T06:22:39;194.50;;;116.73;;
23658;SDS011;12006;42.666;23.326;2023-01-01T06:25:04;188.80;;;117.97;;
23658;SDS011;12006;42.666;23.326;2023-01-01T06:27:30;185.20;;;115.60;;
23658;SDS011;12006;42.666;23.326;2023-01-01T06:29:55;186.23;;;115.47;;
23658;SDS011;12006;42.666;23.326;2023-01-01T06:32:21;176.87;;;116.93;;
23658;SDS011;12006;42.666;23.326;2023-01-01T06:34:46;195.10;;;119.07;;
23658;SDS011;12006;42.666;23.326;2023-01-01T06:37:12;180.53;;;116.87;;
23658;SDS011;12006;42.666;23.326;2023-01-01T06:39:37;182.07;;;120.80;;
23658;SDS011;12006;42.666;23.326;2023-01-01T06:42:02;191.03;;;118.47;;
23658;SDS011;12006;42.666;23.326;2023-01-01T06:44:28;186.97;;;119.83;;
23658;SDS011;12006;42.666;23.326;2023-01-01T06:46:53;181.27;;;115.00;;
23658;SDS011;12006;42.666;23.326;2023-01-01T06:49:18;187.63;;;120.93;;
23658;SDS011;12006;42.666;23.326;2023-01-01T06:51:43;178.97;;;115.23;;
23658;SDS011;12006;42.666;23.326;2023-01-01T06:54:09;175.10;;;109.73;;
23658;SDS011;12006;42.666;23.326;2023-01-01T06:56:35;172.50;;;111.33;;
23658;SDS011;12006;42.666;23.326;2023-01-01T06:59:00;171.43;;;113.50;;
23658;SDS011;12006;42.666;23.326;2023-01-01T07:01:27;173.07;;;112.50;;
23658;SDS011;12006;42.666;23.326;2023-01-01T07:03:53;170.47;;;110.63;;
23658;SDS011;12006;42.666;23.326;2023-01-01T07:06:19;163.30;;;110.73;;
23658;SDS011;12006;42.666;23.326;2023-01-01T07:08:44;160.93;;;105.17;;
23658;SDS011;12006;42.666;23.326;2023-01-01T07:11:10;160.27;;;106.03;;
23658;SDS011;12006;42.666;23.326;2023-01-01T07:13:35;166.63;;;107.83;;
23658;SDS011;12006;42.666;23.326;2023-01-01T07:16:01;157.23;;;106.77;;
23658;SDS011;12006;42.666;23.326;2023-01-01T07:18:26;160.37;;;105.33;;
23658;SDS011;12006;42.666;23.326;2023-01-01T07:20:52;151.07;;;100.17;;
23658;SDS011;12006;42.666;23.326;2023-01-01T07:23:18;149.27;;;100.93;;
23658;SDS011;12006;42.666;23.326;2023-01-01T07:25:43;151.63;;;101.13;;
23658;SDS011;12006;42.666;23.326;2023-01-01T07:28:08;147.17;;;99.43;;
23658;SDS011;12006;42.666;23.326;2023-01-01T07:30:34;149.83;;;102.13;;
23658;SDS011;12006;42.666;23.326;2023-01-01T07:32:59;140.93;;;97.20;;
23658;SDS011;12006;42.666;23.326;2023-01-01T07:35:24;143.77;;;97.20;;
23658;SDS011;12006;42.666;23.326;2023-01-01T07:37:49;144.23;;;95.67;;
23658;SDS011;12006;42.666;23.326;2023-01-01T07:40:15;139.93;;;100.43;;
23658;SDS011;12006;42.666;23.326;2023-01-01T07:42:40;149.57;;;101.63;;
23658;SDS011;12006;42.666;23.326;2023-01-01T07:45:05;152.47;;;107.60;;
23658;SDS011;12006;42.666;23.326;2023-01-01T07:47:31;175.83;;;118.17;;
23658;SDS011;12006;42.666;23.326;2023-01-01T07:49:57;181.00;;;120.77;;
23658;SDS011;12006;42.666;23.326;2023-01-01T07:52:22;178.53;;;122.13;;
23658;SDS011;12006;42.666;23.326;2023-01-01T07:54:47;174.50;;;118.77;;
23658;SDS011;12006;42.666;23.326;2023-01-01T07:57:12;168.53;;;118.13;;
23658;SDS011;12006;42.666;23.326;2023-01-01T07:59:38;174.93;;;120.97;;
23658;SDS011;12006;42.666;23.326;2023-01-01T08:02:03;188.10;;;129.27;;
23658;SDS011;12006;42.666;23.326;2023-01-01T08:04:28;197.07;;;131.47;;
23658;SDS011;12006;42.666;23.326;2023-01-01T08:06:53;189.17;;;129.67;;
23658;SDS011;12006;42.666;23.326;2023-01-01T08:09:19;180.70;;;126.43;;
23658;SDS011;12006;42.666;23.326;2023-01-01T08:11:44;182.50;;;125.07;;
23658;SDS011;12006;42.666;23.326;2023-01-01T08:14:09;191.80;;;129.40;;
23658;SDS011;12006;42.666;23.326;2023-01-01T08:16:35;190.07;;;130.03;;
23658;SDS011;12006;42.666;23.326;2023-01-01T08:19:00;185.60;;;126.60;;
23658;SDS011;12006;42.666;23.326;2023-01-01T08:21:25;181.10;;;125.77;;
23658;SDS011;12006;42.666;23.326;2023-01-01T08:23:50;171.60;;;123.37;;
23658;SDS011;12006;42.666;23.326;2023-01-01T08:26:16;173.13;;;121.40;;
23658;SDS011;12006;42.666;23.326;2023-01-01T08:28:42;164.40;;;119.83;;
23658;SDS011;12006;42.666;23.326;2023-01-01T08:31:07;163.80;;;119.00;;
23658;SDS011;12006;42.666;23.326;2023-01-01T08:33:33;160.97;;;116.63;;
23658;SDS011;12006;42.666;23.326;2023-01-01T08:35:58;161.10;;;116.97;;
23658;SDS011;12006;42.666;23.326;2023-01-01T08:38:23;153.00;;;112.83;;
23658;SDS011;12006;42.666;23.326;2023-01-01T08:40:49;151.37;;;108.57;;
23658;SDS011;12006;42.666;23.326;2023-01-01T08:43:14;157.00;;;114.37;;
23658;SDS011;12006;42.666;23.326;2023-01-01T08:45:39;142.93;;;103.63;;
23658;SDS011;12006;42.666;23.326;2023-01-01T08:48:05;146.63;;;103.67;;
23658;SDS011;12006;42.666;23.326;2023-01-01T08:50:30;144.30;;;106.93;;
23658;SDS011;12006;42.666;23.326;2023-01-01T08:52:56;140.37;;;103.60;;
23658;SDS011;12006;42.666;23.326;2023-01-01T08:55:22;145.63;;;105.87;;
23658;SDS011;12006;42.666;23.326;2023-01-01T08:57:47;137.43;;;102.27;;
23658;SDS011;12006;42.666;23.326;2023-01-01T09:00:12;140.30;;;103.70;;
23658;SDS011;12006;42.666;23.326;2023-01-01T09:02:38;129.07;;;96.87;;
23658;SDS011;12006;42.666;23.326;2023-01-01T09:05:03;134.53;;;100.03;;
23658;SDS011;12006;42.666;23.326;2023-01-01T09:07:28;131.83;;;98.67;;
23658;SDS011;12006;42.666;23.326;2023-01-01T09:09:54;135.37;;;100.10;;
23658;SDS011;12006;42.666;23.326;2023-01-01T09:12:19;121.67;;;93.13;;
23658;SDS011;12006;42.666;23.326;2023-01-01T09:14:47;114.83;;;83.17;;
23658;SDS011;12006;42.666;23.326;2023-01-01T09:17:12;122.77;;;86.73;;
23658;SDS011;12006;42.666;23.326;2023-01-01T09:19:37;114.93;;;82.30;;
23658;SDS011;12006;42.666;23.326;2023-01-01T09:22:03;114.77;;;85.37;;
23658;SDS011;12006;42.666;23.326;2023-01-01T09:24:28;116.60;;;86.17;;
23658;SDS011;12006;42.666;23.326;2023-01-01T09:26:53;111.53;;;84.43;;
23658;SDS011;12006;42.666;23.326;2023-01-01T09:29:18;115.33;;;84.93;;
23658;SDS011;12006;42.666;23.326;2023-01-01T09:31:46;113.57;;;85.27;;
23658;SDS011;12006;42.666;23.326;2023-01-01T09:34:11;111.73;;;81.50;;
23658;SDS011;12006;42.666;23.326;2023-01-01T09:36:37;109.23;;;81.27;;
23658;SDS011;12006;42.666;23.326;2023-01-01T09:39:02;112.13;;;82.23;;
23658;SDS011;12006;42.666;23.326;2023-01-01T09:41:31;109.10;;;80.07;;
23658;SDS011;12006;42.666;23.326;2023-01-01T09:46:45;100.90;;;77.53;;
23658;SDS011;12006;42.666;23.326;2023-01-01T09:49:14;103.23;;;77.33;;
23658;SDS011;12006;42.666;23.326;2023-01-01T09:51:41;104.57;;;76.43;;
23658;SDS011;12006;42.666;23.326;2023-01-01T09:56:45;94.10;;;73.20;;
23658;SDS011;12006;42.666;23.326;2023-01-01T09:59:10;90.33;;;71.07;;
23658;SDS011;12006;42.666;23.326;2023-01-01T10:01:42;88.70;;;72.37;;
23658;SDS011;12006;42.666;23.326;2023-01-01T10:06:47;88.70;;;68.53;;
23658;SDS011;12006;42.666;23.326;2023-01-01T10:09:18;82.70;;;67.83;;
23658;SDS011;12006;42.666;23.326;2023-01-01T10:14:51;81.63;;;63.53;;
23658;SDS011;12006;42.666;23.326;2023-01-01T10:17:40;76.17;;;63.50;;
23658;SDS011;12006;42.666;23.326;2023-01-01T10:20:09;77.57;;;61.90;;
23658;SDS011;12006;42.666;23.326;2023-01-01T10:22:36;74.27;;;60.07;;
23658;SDS011;12006;42.666;23.326;2023-01-01T10:25:13;77.00;;;61.33;;
23658;SDS011;12006;42.666;23.326;2023-01-01T10:28:22;73.10;;;59.83;;
23658;SDS011;12006;42.666;23.326;2023-01-01T10:30:28;73.53;;;60.03;;
23658;SDS011;12006;42.666;23.326;2023-01-01T10:32:54;69.27;;;55.50;;
23658;SDS011;12006;42.666;23.326;2023-01-01T10:35:20;71.77;;;57.27;;
23658;SDS011;12006;42.666;23.326;2023-01-01T10:37:47;68.53;;;53.73;;
23658;SDS011;12006;42.666;23.326;2023-01-01T10:40:20;64.37;;;54.33;;
23658;SDS011;12006;42.666;23.326;2023-01-01T10:42:48;65.13;;;52.77;;
23658;SDS011;12006;42.666;23.326;2023-01-01T10:45:14;64.23;;;53.00;;
23658;SDS011;12006;42.666;23.326;2023-01-01T10:47:39;62.93;;;51.37;;
23658;SDS011;12006;42.666;23.326;2023-01-01T10:50:27;60.97;;;49.27;;
23658;SDS011;12006;42.666;23.326;2023-01-01T10:53:04;63.70;;;52.13;;
23658;SDS011;12006;42.666;23.326;2023-01-01T10:55:30;65.33;;;51.87;;
23658;SDS011;12006;42.666;23.326;2023-01-01T10:57:55;72.10;;;55.70;;
23658;SDS011;12006;42.666;23.326;2023-01-01T11:02:46;68.70;;;53.67;;
23658;SDS011;12006;42.666;23.326;2023-01-01T11:05:13;67.90;;;52.97;;
23658;SDS011;12006;42.666;23.326;2023-01-01T11:07:39;67.43;;;53.50;;
23658;SDS011;12006;42.666;23.326;2023-01-01T11:10:05;72.53;;;55.23;;
23658;SDS011;12006;42.666;23.326;2023-01-01T11:12:34;66.43;;;54.20;;
23658;SDS011;12006;42.666;23.326;2023-01-01T11:15:00;66.10;;;51.93;;
23658;SDS011;12006;42.666;23.326;2023-01-01T11:17:26;65.47;;;50.77;;
23658;SDS011;12006;42.666;23.326;2023-01-01T11:19:53;60.87;;;49.40;;
23658;SDS011;12006;42.666;23.326;2023-01-01T11:22:34;59.57;;;46.83;;
23658;SDS011;12006;42.666;23.326;2023-01-01T11:25:01;57.87;;;44.07;;
23658;SDS011;12006;42.666;23.326;2023-01-01T11:27:27;54.73;;;44.50;;
23658;SDS011;12006;42.666;23.326;2023-01-01T11:29:55;57.50;;;44.90;;
23658;SDS011;12006;42.666;23.326;2023-01-01T11:32:37;52.87;;;43.03;;
23658;SDS011;12006;42.666;23.326;2023-01-01T11:35:03;54.40;;;43.20;;
23658;SDS011;12006;42.666;23.326;2023-01-01T11:37:30;50.50;;;42.00;;
23658;SDS011;12006;42.666;23.326;2023-01-01T11:40:00;52.73;;;41.73;;
23658;SDS011;12006;42.666;23.326;2023-01-01T11:42:27;50.80;;;40.90;;
23658;SDS011;12006;42.666;23.326;2023-01-01T11:44:53;48.47;;;38.90;;
23658;SDS011;12006;42.666;23.326;2023-01-01T11:47:21;48.87;;;40.40;;
23658;SDS011;12006;42.666;23.326;2023-01-01T11:49:52;45.30;;;37.73;;
23658;SDS011;12006;42.666;23.326;2023-01-01T11:57:44;44.97;;;36.70;;
23658;SDS011;12006;42.666;23.326;2023-01-01T12:00:14;42.90;;;35.50;;
23658;SDS011;12006;42.666;23.326;2023-01-01T12:02:59;46.30;;;37.87;;
23658;SDS011;12006;42.666;23.326;2023-01-01T12:05:27;49.77;;;38.97;;
23658;SDS011;12006;42.666;23.326;2023-01-01T12:07:58;44.77;;;36.83;;
23658;SDS011;12006;42.666;23.326;2023-01-01T12:10:28;44.90;;;36.27;;
23658;SDS011;12006;42.666;23.326;2023-01-01T12:13:00;43.77;;;36.07;;
23658;SDS011;12006;42.666;23.326;2023-01-01T12:20:53;43.83;;;35.37;;
23658;SDS011;12006;42.666;23.326;2023-01-01T12:23:21;43.70;;;33.90;;
23658;SDS011;12006;42.666;23.326;2023-01-01T12:25:49;42.93;;;35.60;;
23658;SDS011;12006;42.666;23.326;2023-01-01T12:48:54;41.37;;;32.23;;
23658;SDS011;12006;42.666;23.326;2023-01-01T12:53:52;46.37;;;32.13;;
23658;SDS011;12006;42.666;23.326;2023-01-01T12:58:56;40.83;;;30.33;;
23658;SDS011;12006;42.666;23.326;2023-01-01T13:01:27;37.80;;;30.13;;
23658;SDS011;12006;42.666;23.326;2023-01-01T13:03:57;42.40;;;31.73;;
23658;SDS011;12006;42.666;23.326;2023-01-01T13:06:24;38.90;;;30.33;;
23658;SDS011;12006;42.666;23.326;2023-01-01T13:08:54;38.60;;;30.77;;
23658;SDS011;12006;42.666;23.326;2023-01-01T13:11:20;39.53;;;31.70;;
23658;SDS011;12006;42.666;23.326;2023-01-01T13:13:47;38.13;;;30.47;;
23658;SDS011;12006;42.666;23.326;2023-01-01T13:16:13;39.53;;;31.20;;
23658;SDS011;12006;42.666;23.326;2023-01-01T13:18:55;37.50;;;29.80;;
23658;SDS011;12006;42.666;23.326;2023-01-01T13:21:21;37.90;;;29.83;;
23658;SDS011;12006;42.666;23.326;2023-01-01T13:23:47;41.47;;;30.83;;
23658;SDS011;12006;42.666;23.326;2023-01-01T13:28:41;36.83;;;28.30;;
23658;SDS011;12006;42.666;23.326;2023-01-01T13:31:07;36.17;;;29.20;;
23658;SDS011;12006;42.666;23.326;2023-01-01T13:33:32;35.37;;;28.30;;
23658;SDS011;12006;42.666;23.326;2023-01-01T13:36:40;38.23;;;29.93;;
23658;SDS011;12006;42.666;23.326;2023-01-01T13:49:14;33.83;;;27.80;;
23658;SDS011;12006;42.666;23.326;2023-01-01T13:51:51;36.97;;;28.37;;
23658;SDS011;12006;42.666;23.326;2023-01-01T13:54:39;37.77;;;28.10;;
23658;SDS011;12006;42.666;23.326;2023-01-01T14:02:23;33.63;;;27.40;;
23658;SDS011;12006;42.666;23.326;2023-01-01T14:04:57;32.03;;;26.23;;
23658;SDS011;12006;42.666;23.326;2023-01-01T14:10:11;31.93;;;26.87;;
23658;SDS011;12006;42.666;23.326;2023-01-01T14:12:39;33.00;;;27.73;;
23658;SDS011;12006;42.666;23.326;2023-01-01T14:17:48;32.53;;;26.87;;
23658;SDS011;12006;42.666;23.326;2023-01-01T14:20:15;29.63;;;24.83;;
23658;SDS011;12006;42.666;23.326;2023-01-01T14:22:43;33.53;;;25.67;;
23658;SDS011;12006;42.666;23.326;2023-01-01T14:25:12;34.80;;;25.83;;
23658;SDS011;12006;42.666;23.326;2023-01-01T14:27:38;32.37;;;26.10;;
23658;SDS011;12006;42.666;23.326;2023-01-01T14:30:03;32.37;;;25.93;;
23658;SDS011;12006;42.666;23.326;2023-01-01T14:32:28;29.23;;;25.07;;
23658;SDS011;12006;42.666;23.326;2023-01-01T14:34:57;33.10;;;26.33;;
23658;SDS011;12006;42.666;23.326;2023-01-01T14:37:24;38.03;;;29.10;;
23658;SDS011;12006;42.666;23.326;2023-01-01T14:40:05;44.17;;;29.93;;
23658;SDS011;12006;42.666;23.326;2023-01-01T14:42:31;36.90;;;28.83;;
23658;SDS011;12006;42.666;23.326;2023-01-01T14:44:56;39.43;;;29.80;;
23658;SDS011;12006;42.666;23.326;2023-01-01T14:47:23;38.60;;;28.43;;
23658;SDS011;12006;42.666;23.326;2023-01-01T14:49:49;39.83;;;29.83;;
23658;SDS011;12006;42.666;23.326;2023-01-01T14:52:25;39.60;;;27.30;;
23658;SDS011;12006;42.666;23.326;2023-01-01T14:54:51;38.20;;;28.77;;
23658;SDS011;12006;42.666;23.326;2023-01-01T14:57:33;36.43;;;28.13;;
23658;SDS011;12006;42.666;23.326;2023-01-01T14:59:59;42.63;;;27.83;;
23658;SDS011;12006;42.666;23.326;2023-01-01T15:02:30;42.03;;;28.73;;
23658;SDS011;12006;42.666;23.326;2023-01-01T15:04:57;43.37;;;29.70;;
23658;SDS011;12006;42.666;23.326;2023-01-01T15:07:23;42.80;;;28.97;;
23658;SDS011;12006;42.666;23.326;2023-01-01T15:09:50;41.10;;;28.90;;
23658;SDS011;12006;42.666;23.326;2023-01-01T15:12:15;37.03;;;28.17;;
23658;SDS011;12006;42.666;23.326;2023-01-01T15:14:45;42.80;;;28.53;;
23658;SDS011;12006;42.666;23.326;2023-01-01T15:17:12;37.83;;;26.97;;
23658;SDS011;12006;42.666;23.326;2023-01-01T15:19:38;38.37;;;26.73;;
23658;SDS011;12006;42.666;23.326;2023-01-01T15:22:08;35.70;;;27.40;;
23658;SDS011;12006;42.666;23.326;2023-01-01T15:24:34;36.87;;;26.80;;
23658;SDS011;12006;42.666;23.326;2023-01-01T15:27:02;40.93;;;26.87;;
23658;SDS011;12006;42.666;23.326;2023-01-01T15:29:28;38.40;;;27.83;;
23658;SDS011;12006;42.666;23.326;2023-01-01T15:32:22;41.57;;;28.83;;
23658;SDS011;12006;42.666;23.326;2023-01-01T15:34:47;37.80;;;26.73;;
23658;SDS011;12006;42.666;23.326;2023-01-01T15:39:48;34.80;;;26.53;;
23658;SDS011;12006;42.666;23.326;2023-01-01T15:47:42;42.63;;;28.93;;
23658;SDS011;12006;42.666;23.326;2023-01-01T15:52:52;45.07;;;30.07;;
23658;SDS011;12006;42.666;23.326;2023-01-01T15:55:18;40.97;;;28.60;;